sensor_id;sensor_type;location;lat;lon;timestamp;temperature;humidity
66213;SHT31;53015;50.046;8.238;2022-07-15T00:01:27;17.66;59.23
66213;SHT31;53015;50.046;8.238;2022-07-15T00:03:54;17.67;59.53
66213;SHT31;53015;50.046;8.238;2022-07-15T00:06:20;17.70;59.14
66213;SHT31;53015;50.046;8.238;2022-07-15T00:08:46;17.74;59.40
66213;SHT31;53015;50.046;8.238;2022-07-15T00:11:11;17.70;59.58
66213;SHT31;53015;50.046;8.238;2022-07-15T00:13:36;17.63;59.03
66213;SHT31;53015;50.046;8.238;2022-07-15T00:16:02;17.54;59.19
66213;SHT31;53015;50.046;8.238;2022-07-15T00:18:27;17.70;58.94
66213;SHT31;53015;50.046;8.238;2022-07-15T00:20:53;17.50;59.05
66213;SHT31;53015;50.046;8.238;2022-07-15T00:23:18;17.40;59.64
66213;SHT31;53015;50.046;8.238;2022-07-15T00:25:44;17.50;59.68
66213;SHT31;53015;50.046;8.238;2022-07-15T00:28:09;17.57;59.91
66213;SHT31;53015;50.046;8.238;2022-07-15T00:30:38;17.51;60.35
66213;SHT31;53015;50.046;8.238;2022-07-15T00:33:04;17.43;60.88
66213;SHT31;53015;50.046;8.238;2022-07-15T00:35:32;17.45;60.90
66213;SHT31;53015;50.046;8.238;2022-07-15T00:37:58;17.28;61.00
66213;SHT31;53015;50.046;8.238;2022-07-15T00:40:24;17.25;61.07
66213;SHT31;53015;50.046;8.238;2022-07-15T00:42:50;17.18;61.63
66213;SHT31;53015;50.046;8.238;2022-07-15T00:45:17;17.11;61.91
66213;SHT31;53015;50.046;8.238;2022-07-15T00:47:44;17.16;61.59
66213;SHT31;53015;50.046;8.238;2022-07-15T00:50:11;17.10;61.44
66213;SHT31;53015;50.046;8.238;2022-07-15T00:52:39;17.14;61.43
66213;SHT31;53015;50.046;8.238;2022-07-15T00:55:07;17.08;61.89
66213;SHT31;53015;50.046;8.238;2022-07-15T00:57:37;16.94;61.29
66213;SHT31;53015;50.046;8.238;2022-07-15T01:00:04;17.04;61.32
66213;SHT31;53015;50.046;8.238;2022-07-15T01:02:31;16.98;61.83
66213;SHT31;53015;50.046;8.238;2022-07-15T01:04:58;17.07;60.94
66213;SHT31;53015;50.046;8.238;2022-07-15T01:07:24;17.00;59.20
66213;SHT31;53015;50.046;8.238;2022-07-15T01:09:49;17.01;59.89
66213;SHT31;53015;50.046;8.238;2022-07-15T01:12:15;16.92;61.05
66213;SHT31;53015;50.046;8.238;2022-07-15T01:14:40;16.95;61.27
66213;SHT31;53015;50.046;8.238;2022-07-15T01:17:11;16.98;61.33
66213;SHT31;53015;50.046;8.238;2022-07-15T01:19:38;17.01;61.34
66213;SHT31;53015;50.046;8.238;2022-07-15T01:22:07;16.89;61.23
66213;SHT31;53015;50.046;8.238;2022-07-15T01:24:32;16.91;61.49
66213;SHT31;53015;50.046;8.238;2022-07-15T01:26:58;16.73;61.87
66213;SHT31;53015;50.046;8.238;2022-07-15T01:29:25;16.73;62.39
66213;SHT31;53015;50.046;8.238;2022-07-15T01:31:51;16.66;62.46
66213;SHT31;53015;50.046;8.238;2022-07-15T01:34:17;16.68;62.75
66213;SHT31;53015;50.046;8.238;2022-07-15T01:36:42;16.70;62.61
66213;SHT31;53015;50.046;8.238;2022-07-15T01:39:08;16.66;62.79
66213;SHT31;53015;50.046;8.238;2022-07-15T01:41:33;16.63;62.71
66213;SHT31;53015;50.046;8.238;2022-07-15T01:43:59;16.63;62.78
66213;SHT31;53015;50.046;8.238;2022-07-15T01:46:24;16.64;62.62
66213;SHT31;53015;50.046;8.238;2022-07-15T01:48:49;16.61;62.51
66213;SHT31;53015;50.046;8.238;2022-07-15T01:51:34;16.50;62.97
66213;SHT31;53015;50.046;8.238;2022-07-15T01:53:59;16.36;63.44
66213;SHT31;53015;50.046;8.238;2022-07-15T01:56:25;16.22;64.26
66213;SHT31;53015;50.046;8.238;2022-07-15T01:58:50;16.26;64.58
66213;SHT31;53015;50.046;8.238;2022-07-15T02:01:16;16.26;64.62
66213;SHT31;53015;50.046;8.238;2022-07-15T02:03:43;16.22;65.18
66213;SHT31;53015;50.046;8.238;2022-07-15T02:06:09;16.23;65.32
66213;SHT31;53015;50.046;8.238;2022-07-15T02:08:34;16.12;65.70
66213;SHT31;53015;50.046;8.238;2022-07-15T02:11:00;16.09;66.13
66213;SHT31;53015;50.046;8.238;2022-07-15T02:13:25;15.97;67.32
66213;SHT31;53015;50.046;8.238;2022-07-15T02:15:51;15.98;66.50
66213;SHT31;53015;50.046;8.238;2022-07-15T02:18:16;15.95;66.67
66213;SHT31;53015;50.046;8.238;2022-07-15T02:20:42;15.95;67.26
66213;SHT31;53015;50.046;8.238;2022-07-15T02:23:07;15.92;66.86
66213;SHT31;53015;50.046;8.238;2022-07-15T02:25:34;15.95;67.24
66213;SHT31;53015;50.046;8.238;2022-07-15T02:28:02;15.90;67.13
66213;SHT31;53015;50.046;8.238;2022-07-15T02:30:34;15.98;66.10
66213;SHT31;53015;50.046;8.238;2022-07-15T02:33:01;15.91;65.08
66213;SHT31;53015;50.046;8.238;2022-07-15T02:35:27;15.98;63.83
66213;SHT31;53015;50.046;8.238;2022-07-15T02:37:53;16.10;63.80
66213;SHT31;53015;50.046;8.238;2022-07-15T02:40:19;16.20;63.71
66213;SHT31;53015;50.046;8.238;2022-07-15T02:42:49;16.16;64.44
66213;SHT31;53015;50.046;8.238;2022-07-15T02:45:19;16.16;64.54
66213;SHT31;53015;50.046;8.238;2022-07-15T02:47:46;16.09;64.55
66213;SHT31;53015;50.046;8.238;2022-07-15T02:50:11;16.05;64.25
66213;SHT31;53015;50.046;8.238;2022-07-15T02:52:37;16.13;64.40
66213;SHT31;53015;50.046;8.238;2022-07-15T02:55:03;16.02;64.81
66213;SHT31;53015;50.046;8.238;2022-07-15T02:57:29;15.98;64.41
66213;SHT31;53015;50.046;8.238;2022-07-15T02:59:54;15.92;64.11
66213;SHT31;53015;50.046;8.238;2022-07-15T03:02:20;15.91;65.13
66213;SHT31;53015;50.046;8.238;2022-07-15T03:04:45;15.92;64.40
66213;SHT31;53015;50.046;8.238;2022-07-15T03:07:11;15.91;64.53
66213;SHT31;53015;50.046;8.238;2022-07-15T03:09:37;15.82;64.92
66213;SHT31;53015;50.046;8.238;2022-07-15T03:12:02;15.84;63.89
66213;SHT31;53015;50.046;8.238;2022-07-15T03:14:28;15.81;64.15
66213;SHT31;53015;50.046;8.238;2022-07-15T03:16:53;15.82;64.75
66213;SHT31;53015;50.046;8.238;2022-07-15T03:19:19;16.04;64.03
66213;SHT31;53015;50.046;8.238;2022-07-15T03:21:46;16.01;63.60
66213;SHT31;53015;50.046;8.238;2022-07-15T03:24:11;16.12;63.57
66213;SHT31;53015;50.046;8.238;2022-07-15T03:26:38;16.18;63.75
66213;SHT31;53015;50.046;8.238;2022-07-15T03:29:03;16.34;63.73
66213;SHT31;53015;50.046;8.238;2022-07-15T03:31:29;16.34;62.15
66213;SHT31;53015;50.046;8.238;2022-07-15T03:33:55;16.47;62.36
66213;SHT31;53015;50.046;8.238;2022-07-15T03:36:21;16.57;61.82
66213;SHT31;53015;50.046;8.238;2022-07-15T03:38:46;16.71;61.66
66213;SHT31;53015;50.046;8.238;2022-07-15T03:41:14;16.71;62.12
66213;SHT31;53015;50.046;8.238;2022-07-15T03:43:39;16.75;62.21
66213;SHT31;53015;50.046;8.238;2022-07-15T03:46:05;16.71;62.39
66213;SHT31;53015;50.046;8.238;2022-07-15T03:48:30;16.74;61.73
66213;SHT31;53015;50.046;8.238;2022-07-15T03:50:56;16.81;60.97
66213;SHT31;53015;50.046;8.238;2022-07-15T03:53:21;16.73;61.46
66213;SHT31;53015;50.046;8.238;2022-07-15T03:55:47;16.67;61.16
66213;SHT31;53015;50.046;8.238;2022-07-15T03:58:12;16.78;61.12
66213;SHT31;53015;50.046;8.238;2022-07-15T04:00:37;16.80;60.95
66213;SHT31;53015;50.046;8.238;2022-07-15T04:03:03;16.83;60.87
66213;SHT31;53015;50.046;8.238;2022-07-15T04:05:28;16.88;61.00
66213;SHT31;53015;50.046;8.238;2022-07-15T04:07:53;16.91;60.23
66213;SHT31;53015;50.046;8.238;2022-07-15T04:10:19;16.87;60.33
66213;SHT31;53015;50.046;8.238;2022-07-15T04:12:44;16.81;60.78
66213;SHT31;53015;50.046;8.238;2022-07-15T04:15:10;16.87;60.47
66213;SHT31;53015;50.046;8.238;2022-07-15T04:17:36;16.92;60.46
66213;SHT31;53015;50.046;8.238;2022-07-15T04:20:02;16.92;60.51
66213;SHT31;53015;50.046;8.238;2022-07-15T04:22:27;16.92;60.70
66213;SHT31;53015;50.046;8.238;2022-07-15T04:24:52;17.00;60.40
66213;SHT31;53015;50.046;8.238;2022-07-15T04:27:18;16.98;60.71
66213;SHT31;53015;50.046;8.238;2022-07-15T04:29:43;17.07;60.77
66213;SHT31;53015;50.046;8.238;2022-07-15T04:32:09;17.15;60.53
66213;SHT31;53015;50.046;8.238;2022-07-15T04:34:34;17.28;59.90
66213;SHT31;53015;50.046;8.238;2022-07-15T04:37:00;17.33;60.00
66213;SHT31;53015;50.046;8.238;2022-07-15T04:39:25;17.19;59.98
66213;SHT31;53015;50.046;8.238;2022-07-15T04:41:51;17.28;60.15
66213;SHT31;53015;50.046;8.238;2022-07-15T04:44:18;17.35;60.01
66213;SHT31;53015;50.046;8.238;2022-07-15T04:46:43;17.33;59.89
66213;SHT31;53015;50.046;8.238;2022-07-15T04:49:09;17.32;59.78
66213;SHT31;53015;50.046;8.238;2022-07-15T04:51:53;17.38;59.81
66213;SHT31;53015;50.046;8.238;2022-07-15T04:54:18;17.33;59.84
66213;SHT31;53015;50.046;8.238;2022-07-15T04:56:43;17.36;59.78
66213;SHT31;53015;50.046;8.238;2022-07-15T04:59:09;17.22;60.07
66213;SHT31;53015;50.046;8.238;2022-07-15T05:01:34;17.16;60.49
66213;SHT31;53015;50.046;8.238;2022-07-15T05:04:00;17.14;60.76
66213;SHT31;53015;50.046;8.238;2022-07-15T05:06:26;17.04;60.96
66213;SHT31;53015;50.046;8.238;2022-07-15T05:08:52;16.92;61.50
66213;SHT31;53015;50.046;8.238;2022-07-15T05:11:18;16.94;61.46
66213;SHT31;53015;50.046;8.238;2022-07-15T05:13:43;16.88;61.77
66213;SHT31;53015;50.046;8.238;2022-07-15T05:16:08;16.91;61.91
66213;SHT31;53015;50.046;8.238;2022-07-15T05:18:35;16.89;61.97
66213;SHT31;53015;50.046;8.238;2022-07-15T05:21:01;16.91;62.11
66213;SHT31;53015;50.046;8.238;2022-07-15T05:23:26;16.95;62.08
66213;SHT31;53015;50.046;8.238;2022-07-15T05:25:52;17.12;61.78
66213;SHT31;53015;50.046;8.238;2022-07-15T05:28:17;17.19;61.66
66213;SHT31;53015;50.046;8.238;2022-07-15T05:30:43;17.32;61.42
66213;SHT31;53015;50.046;8.238;2022-07-15T05:33:08;17.57;61.01
66213;SHT31;53015;50.046;8.238;2022-07-15T05:35:34;17.67;60.59
66213;SHT31;53015;50.046;8.238;2022-07-15T05:37:59;17.77;60.45
66213;SHT31;53015;50.046;8.238;2022-07-15T05:40:25;17.59;60.74
66213;SHT31;53015;50.046;8.238;2022-07-15T05:42:51;17.47;61.34
66213;SHT31;53015;50.046;8.238;2022-07-15T05:45:16;17.36;61.39
66213;SHT31;53015;50.046;8.238;2022-07-15T05:47:49;17.43;61.60
66213;SHT31;53015;50.046;8.238;2022-07-15T05:50:15;17.60;61.29
66213;SHT31;53015;50.046;8.238;2022-07-15T05:52:40;17.56;61.26
66213;SHT31;53015;50.046;8.238;2022-07-15T05:55:06;17.62;61.36
66213;SHT31;53015;50.046;8.238;2022-07-15T05:57:32;17.73;61.49
66213;SHT31;53015;50.046;8.238;2022-07-15T05:59:57;17.69;60.80
66213;SHT31;53015;50.046;8.238;2022-07-15T06:02:23;17.76;60.72
66213;SHT31;53015;50.046;8.238;2022-07-15T06:04:48;17.93;60.37
66213;SHT31;53015;50.046;8.238;2022-07-15T06:07:13;18.01;60.14
66213;SHT31;53015;50.046;8.238;2022-07-15T06:09:39;18.19;59.79
66213;SHT31;53015;50.046;8.238;2022-07-15T06:12:04;18.33;59.25
66213;SHT31;53015;50.046;8.238;2022-07-15T06:14:30;18.46;58.93
66213;SHT31;53015;50.046;8.238;2022-07-15T06:16:55;18.42;58.76
66213;SHT31;53015;50.046;8.238;2022-07-15T06:19:20;18.38;58.77
66213;SHT31;53015;50.046;8.238;2022-07-15T06:21:46;18.41;58.75
66213;SHT31;53015;50.046;8.238;2022-07-15T06:24:11;18.43;59.04
66213;SHT31;53015;50.046;8.238;2022-07-15T06:26:37;18.33;58.91
66213;SHT31;53015;50.046;8.238;2022-07-15T06:29:02;18.32;59.12
66213;SHT31;53015;50.046;8.238;2022-07-15T06:31:28;18.39;58.99
66213;SHT31;53015;50.046;8.238;2022-07-15T06:33:53;18.35;59.09
66213;SHT31;53015;50.046;8.238;2022-07-15T06:36:19;18.41;59.04
66213;SHT31;53015;50.046;8.238;2022-07-15T06:38:44;18.46;59.35
66213;SHT31;53015;50.046;8.238;2022-07-15T06:41:10;18.48;58.96
66213;SHT31;53015;50.046;8.238;2022-07-15T06:43:35;18.64;58.76
66213;SHT31;53015;50.046;8.238;2022-07-15T06:46:01;18.77;58.47
66213;SHT31;53015;50.046;8.238;2022-07-15T06:48:26;19.04;58.50
66213;SHT31;53015;50.046;8.238;2022-07-15T06:50:52;19.11;57.14
66213;SHT31;53015;50.046;8.238;2022-07-15T06:53:17;19.16;57.71
66213;SHT31;53015;50.046;8.238;2022-07-15T06:55:43;19.38;57.16
66213;SHT31;53015;50.046;8.238;2022-07-15T06:58:08;19.73;56.50
66213;SHT31;53015;50.046;8.238;2022-07-15T07:00:34;19.83;55.65
66213;SHT31;53015;50.046;8.238;2022-07-15T07:02:59;20.01;55.51
66213;SHT31;53015;50.046;8.238;2022-07-15T07:05:24;20.08;55.10
66213;SHT31;53015;50.046;8.238;2022-07-15T07:07:50;20.22;55.31
66213;SHT31;53015;50.046;8.238;2022-07-15T07:10:16;20.13;55.02
66213;SHT31;53015;50.046;8.238;2022-07-15T07:12:41;20.10;55.47
66213;SHT31;53015;50.046;8.238;2022-07-15T07:15:07;20.04;55.56
66213;SHT31;53015;50.046;8.238;2022-07-15T07:17:33;20.01;55.63
66213;SHT31;53015;50.046;8.238;2022-07-15T07:20:01;19.98;55.68
66213;SHT31;53015;50.046;8.238;2022-07-15T07:22:27;20.10;55.70
66213;SHT31;53015;50.046;8.238;2022-07-15T07:24:53;20.07;55.19
66213;SHT31;53015;50.046;8.238;2022-07-15T07:27:19;20.27;54.93
66213;SHT31;53015;50.046;8.238;2022-07-15T07:29:45;20.25;55.03
66213;SHT31;53015;50.046;8.238;2022-07-15T07:32:10;20.44;54.42
66213;SHT31;53015;50.046;8.238;2022-07-15T07:34:36;20.49;53.99
66213;SHT31;53015;50.046;8.238;2022-07-15T07:37:01;20.41;53.62
66213;SHT31;53015;50.046;8.238;2022-07-15T07:39:27;20.57;53.37
66213;SHT31;53015;50.046;8.238;2022-07-15T07:41:52;20.39;53.80
66213;SHT31;53015;50.046;8.238;2022-07-15T07:44:19;20.55;54.09
66213;SHT31;53015;50.046;8.238;2022-07-15T07:46:45;20.61;53.46
66213;SHT31;53015;50.046;8.238;2022-07-15T07:49:10;20.63;53.30
66213;SHT31;53015;50.046;8.238;2022-07-15T07:51:38;20.45;53.50
66213;SHT31;53015;50.046;8.238;2022-07-15T07:54:04;20.65;53.64
66213;SHT31;53015;50.046;8.238;2022-07-15T07:56:30;20.96;53.49
66213;SHT31;53015;50.046;8.238;2022-07-15T07:58:55;21.11;52.54
66213;SHT31;53015;50.046;8.238;2022-07-15T08:01:21;20.91;52.79
66213;SHT31;53015;50.046;8.238;2022-07-15T08:03:46;20.96;52.93
66213;SHT31;53015;50.046;8.238;2022-07-15T08:06:11;20.76;52.78
66213;SHT31;53015;50.046;8.238;2022-07-15T08:08:37;20.57;52.98
66213;SHT31;53015;50.046;8.238;2022-07-15T08:11:04;20.39;53.83
66213;SHT31;53015;50.046;8.238;2022-07-15T08:13:29;20.25;53.80
66213;SHT31;53015;50.046;8.238;2022-07-15T08:15:55;20.28;53.63
66213;SHT31;53015;50.046;8.238;2022-07-15T08:18:22;20.20;53.35
66213;SHT31;53015;50.046;8.238;2022-07-15T08:20:47;20.36;53.03
66213;SHT31;53015;50.046;8.238;2022-07-15T08:23:13;20.42;52.80
66213;SHT31;53015;50.046;8.238;2022-07-15T08:25:44;20.49;52.14
66213;SHT31;53015;50.046;8.238;2022-07-15T08:28:09;20.45;52.14
66213;SHT31;53015;50.046;8.238;2022-07-15T08:30:35;20.66;51.52
66213;SHT31;53015;50.046;8.238;2022-07-15T08:33:01;20.93;50.76
66213;SHT31;53015;50.046;8.238;2022-07-15T08:35:27;21.30;49.96
66213;SHT31;53015;50.046;8.238;2022-07-15T08:37:53;21.08;50.56
66213;SHT31;53015;50.046;8.238;2022-07-15T08:40:19;21.32;50.29
66213;SHT31;53015;50.046;8.238;2022-07-15T08:42:45;21.35;49.53
66213;SHT31;53015;50.046;8.238;2022-07-15T08:45:16;21.24;49.21
66213;SHT31;53015;50.046;8.238;2022-07-15T08:47:43;21.12;49.37
66213;SHT31;53015;50.046;8.238;2022-07-15T08:50:11;21.10;49.98
66213;SHT31;53015;50.046;8.238;2022-07-15T08:52:38;21.31;49.55
66213;SHT31;53015;50.046;8.238;2022-07-15T08:55:05;21.30;48.64
66213;SHT31;53015;50.046;8.238;2022-07-15T08:57:31;21.58;48.25
66213;SHT31;53015;50.046;8.238;2022-07-15T08:59:57;21.65;47.34
66213;SHT31;53015;50.046;8.238;2022-07-15T09:02:23;21.35;46.78
66213;SHT31;53015;50.046;8.238;2022-07-15T09:05:26;21.31;47.04
66213;SHT31;53015;50.046;8.238;2022-07-15T09:10:55;21.28;47.26
66213;SHT31;53015;50.046;8.238;2022-07-15T09:15:51;21.28;47.93
66213;SHT31;53015;50.046;8.238;2022-07-15T09:18:26;21.42;48.23
66213;SHT31;53015;50.046;8.238;2022-07-15T09:20:52;21.28;47.71
66213;SHT31;53015;50.046;8.238;2022-07-15T09:23:21;21.23;48.10
66213;SHT31;53015;50.046;8.238;2022-07-15T09:25:49;21.41;47.78
66213;SHT31;53015;50.046;8.238;2022-07-15T09:28:16;21.42;47.49
66213;SHT31;53015;50.046;8.238;2022-07-15T09:30:44;21.58;47.16
66213;SHT31;53015;50.046;8.238;2022-07-15T09:33:32;21.69;47.21
66213;SHT31;53015;50.046;8.238;2022-07-15T09:38:33;21.83;45.18
66213;SHT31;53015;50.046;8.238;2022-07-15T09:40:59;22.10;45.38
66213;SHT31;53015;50.046;8.238;2022-07-15T09:43:24;22.21;44.54
66213;SHT31;53015;50.046;8.238;2022-07-15T09:45:58;22.29;45.03
66213;SHT31;53015;50.046;8.238;2022-07-15T09:48:25;22.13;44.31
66213;SHT31;53015;50.046;8.238;2022-07-15T09:50:57;22.04;45.27
66213;SHT31;53015;50.046;8.238;2022-07-15T09:53:24;22.09;44.71
66213;SHT31;53015;50.046;8.238;2022-07-15T09:55:50;21.96;45.00
66213;SHT31;53015;50.046;8.238;2022-07-15T09:58:17;21.88;44.92
66213;SHT31;53015;50.046;8.238;2022-07-15T10:00:43;21.81;45.25
66213;SHT31;53015;50.046;8.238;2022-07-15T10:03:09;21.86;45.44
66213;SHT31;53015;50.046;8.238;2022-07-15T10:05:35;22.11;44.65
66213;SHT31;53015;50.046;8.238;2022-07-15T10:08:02;22.21;44.42
66213;SHT31;53015;50.046;8.238;2022-07-15T10:10:29;22.06;46.06
66213;SHT31;53015;50.046;8.238;2022-07-15T10:24:18;22.52;44.65
66213;SHT31;53015;50.046;8.238;2022-07-15T10:29:52;22.89;43.50
66213;SHT31;53015;50.046;8.238;2022-07-15T10:32:17;23.13;44.12
66213;SHT31;53015;50.046;8.238;2022-07-15T10:34:43;23.26;43.81
66213;SHT31;53015;50.046;8.238;2022-07-15T10:37:22;23.23;43.64
66213;SHT31;53015;50.046;8.238;2022-07-15T10:39:55;23.04;43.07
66213;SHT31;53015;50.046;8.238;2022-07-15T10:42:23;23.36;43.28
66213;SHT31;53015;50.046;8.238;2022-07-15T10:47:23;23.68;41.17
66213;SHT31;53015;50.046;8.238;2022-07-15T10:49:49;23.51;41.76
66213;SHT31;53015;50.046;8.238;2022-07-15T10:52:16;23.12;42.84
66213;SHT31;53015;50.046;8.238;2022-07-15T10:54:44;22.88;44.08
66213;SHT31;53015;50.046;8.238;2022-07-15T10:57:10;22.64;43.38
66213;SHT31;53015;50.046;8.238;2022-07-15T10:59:46;22.57;43.50
66213;SHT31;53015;50.046;8.238;2022-07-15T11:02:14;22.44;43.92
66213;SHT31;53015;50.046;8.238;2022-07-15T11:04:41;22.68;43.20
66213;SHT31;53015;50.046;8.238;2022-07-15T11:09:52;23.37;41.63
66213;SHT31;53015;50.046;8.238;2022-07-15T11:15:17;23.30;41.62
66213;SHT31;53015;50.046;8.238;2022-07-15T11:17:45;23.10;42.61
66213;SHT31;53015;50.046;8.238;2022-07-15T11:20:17;22.88;42.34
66213;SHT31;53015;50.046;8.238;2022-07-15T11:22:50;22.79;43.04
66213;SHT31;53015;50.046;8.238;2022-07-15T11:25:33;22.86;43.11
66213;SHT31;53015;50.046;8.238;2022-07-15T11:30:42;23.00;43.81
66213;SHT31;53015;50.046;8.238;2022-07-15T11:33:11;22.71;42.97
66213;SHT31;53015;50.046;8.238;2022-07-15T11:35:48;22.55;42.79
66213;SHT31;53015;50.046;8.238;2022-07-15T11:38:15;22.47;42.85
66213;SHT31;53015;50.046;8.238;2022-07-15T11:40:46;22.52;42.32
66213;SHT31;53015;50.046;8.238;2022-07-15T11:43:30;22.61;42.26
66213;SHT31;53015;50.046;8.238;2022-07-15T11:46:15;23.06;41.22
66213;SHT31;53015;50.046;8.238;2022-07-15T11:48:41;23.41;41.14
66213;SHT31;53015;50.046;8.238;2022-07-15T11:51:08;23.62;40.29
66213;SHT31;53015;50.046;8.238;2022-07-15T11:53:39;23.72;40.08
66213;SHT31;53015;50.046;8.238;2022-07-15T11:56:06;23.47;40.55
66213;SHT31;53015;50.046;8.238;2022-07-15T11:58:39;23.14;40.62
66213;SHT31;53015;50.046;8.238;2022-07-15T12:01:07;23.02;41.14
66213;SHT31;53015;50.046;8.238;2022-07-15T12:03:35;22.86;41.16
66213;SHT31;53015;50.046;8.238;2022-07-15T12:06:03;23.04;41.17
66213;SHT31;53015;50.046;8.238;2022-07-15T12:08:37;23.16;40.65
66213;SHT31;53015;50.046;8.238;2022-07-15T12:11:09;23.31;40.70
66213;SHT31;53015;50.046;8.238;2022-07-15T12:13:43;23.19;41.02
66213;SHT31;53015;50.046;8.238;2022-07-15T12:16:10;23.24;40.72
66213;SHT31;53015;50.046;8.238;2022-07-15T12:18:36;23.33;41.57
66213;SHT31;53015;50.046;8.238;2022-07-15T12:21:02;23.24;40.35
66213;SHT31;53015;50.046;8.238;2022-07-15T12:23:27;23.14;40.13
66213;SHT31;53015;50.046;8.238;2022-07-15T12:26:05;23.04;40.57
66213;SHT31;53015;50.046;8.238;2022-07-15T12:28:32;22.92;40.63
66213;SHT31;53015;50.046;8.238;2022-07-15T12:30:58;22.85;41.01
66213;SHT31;53015;50.046;8.238;2022-07-15T12:33:25;22.82;40.10
66213;SHT31;53015;50.046;8.238;2022-07-15T12:36:14;23.40;39.60
66213;SHT31;53015;50.046;8.238;2022-07-15T12:38:39;24.05;38.68
66213;SHT31;53015;50.046;8.238;2022-07-15T12:41:21;24.34;37.44
66213;SHT31;53015;50.046;8.238;2022-07-15T12:43:50;24.27;37.40
66213;SHT31;53015;50.046;8.238;2022-07-15T12:46:16;23.85;37.92
66213;SHT31;53015;50.046;8.238;2022-07-15T12:48:46;23.53;39.21
66213;SHT31;53015;50.046;8.238;2022-07-15T12:51:14;23.20;39.86
66213;SHT31;53015;50.046;8.238;2022-07-15T12:53:40;23.27;39.65
66213;SHT31;53015;50.046;8.238;2022-07-15T12:56:07;23.54;39.16
66213;SHT31;53015;50.046;8.238;2022-07-15T12:58:33;23.75;38.78
66213;SHT31;53015;50.046;8.238;2022-07-15T13:01:05;23.85;38.06
66213;SHT31;53015;50.046;8.238;2022-07-15T13:03:30;24.08;37.61
66213;SHT31;53015;50.046;8.238;2022-07-15T13:05:56;24.12;38.41
66213;SHT31;53015;50.046;8.238;2022-07-15T13:08:27;24.22;38.92
66213;SHT31;53015;50.046;8.238;2022-07-15T13:10:54;23.94;38.23
66213;SHT31;53015;50.046;8.238;2022-07-15T13:13:23;23.69;38.65
66213;SHT31;53015;50.046;8.238;2022-07-15T13:15:49;23.61;38.89
66213;SHT31;53015;50.046;8.238;2022-07-15T13:18:15;23.39;38.62
66213;SHT31;53015;50.046;8.238;2022-07-15T13:20:41;23.40;39.27
66213;SHT31;53015;50.046;8.238;2022-07-15T13:23:06;23.67;38.60
66213;SHT31;53015;50.046;8.238;2022-07-15T13:25:33;23.69;38.18
66213;SHT31;53015;50.046;8.238;2022-07-15T13:28:01;23.69;37.50
66213;SHT31;53015;50.046;8.238;2022-07-15T13:30:27;23.50;37.97
66213;SHT31;53015;50.046;8.238;2022-07-15T13:32:52;23.60;37.62
66213;SHT31;53015;50.046;8.238;2022-07-15T13:35:18;23.50;37.73
66213;SHT31;53015;50.046;8.238;2022-07-15T13:37:43;23.67;38.73
66213;SHT31;53015;50.046;8.238;2022-07-15T13:40:10;23.54;36.65
66213;SHT31;53015;50.046;8.238;2022-07-15T13:42:37;23.58;37.11
66213;SHT31;53015;50.046;8.238;2022-07-15T13:45:04;23.48;36.90
66213;SHT31;53015;50.046;8.238;2022-07-15T13:47:30;23.46;37.46
66213;SHT31;53015;50.046;8.238;2022-07-15T13:49:56;23.43;36.90
66213;SHT31;53015;50.046;8.238;2022-07-15T13:52:43;23.43;37.16
66213;SHT31;53015;50.046;8.238;2022-07-15T13:55:09;23.90;36.60
66213;SHT31;53015;50.046;8.238;2022-07-15T13:57:35;24.01;35.91
66213;SHT31;53015;50.046;8.238;2022-07-15T14:00:02;23.81;35.81
66213;SHT31;53015;50.046;8.238;2022-07-15T14:02:27;23.69;35.88
66213;SHT31;53015;50.046;8.238;2022-07-15T14:04:53;23.85;35.52
66213;SHT31;53015;50.046;8.238;2022-07-15T14:07:18;24.09;35.43
66213;SHT31;53015;50.046;8.238;2022-07-15T14:09:44;23.98;36.14
66213;SHT31;53015;50.046;8.238;2022-07-15T14:12:09;24.34;35.47
66213;SHT31;53015;50.046;8.238;2022-07-15T14:14:35;24.49;34.89
66213;SHT31;53015;50.046;8.238;2022-07-15T14:17:00;24.36;35.02
66213;SHT31;53015;50.046;8.238;2022-07-15T14:19:26;24.34;34.65
66213;SHT31;53015;50.046;8.238;2022-07-15T14:21:51;24.50;34.64
66213;SHT31;53015;50.046;8.238;2022-07-15T14:24:17;24.85;35.27
66213;SHT31;53015;50.046;8.238;2022-07-15T14:26:43;24.94;34.09
66213;SHT31;53015;50.046;8.238;2022-07-15T14:29:08;25.18;34.01
66213;SHT31;53015;50.046;8.238;2022-07-15T14:31:34;25.19;33.73
66213;SHT31;53015;50.046;8.238;2022-07-15T14:34:00;25.12;33.89
66213;SHT31;53015;50.046;8.238;2022-07-15T14:36:25;25.11;34.19
66213;SHT31;53015;50.046;8.238;2022-07-15T14:38:51;24.96;33.59
66213;SHT31;53015;50.046;8.238;2022-07-15T14:41:16;24.75;33.93
66213;SHT31;53015;50.046;8.238;2022-07-15T14:43:42;24.96;33.86
66213;SHT31;53015;50.046;8.238;2022-07-15T14:46:07;25.25;33.99
66213;SHT31;53015;50.046;8.238;2022-07-15T14:48:33;25.35;33.73
66213;SHT31;53015;50.046;8.238;2022-07-15T14:50:58;24.33;34.32
66213;SHT31;53015;50.046;8.238;2022-07-15T14:53:25;24.51;34.24
66213;SHT31;53015;50.046;8.238;2022-07-15T14:55:50;24.75;33.81
66213;SHT31;53015;50.046;8.238;2022-07-15T14:58:16;25.05;33.76
66213;SHT31;53015;50.046;8.238;2022-07-15T15:00:44;24.91;33.71
66213;SHT31;53015;50.046;8.238;2022-07-15T15:03:10;25.30;33.80
66213;SHT31;53015;50.046;8.238;2022-07-15T15:05:35;25.12;33.29
66213;SHT31;53015;50.046;8.238;2022-07-15T15:08:01;25.36;33.63
66213;SHT31;53015;50.046;8.238;2022-07-15T15:10:26;25.66;32.85
66213;SHT31;53015;50.046;8.238;2022-07-15T15:12:51;25.78;33.03
66213;SHT31;53015;50.046;8.238;2022-07-15T15:15:17;25.90;31.86
66213;SHT31;53015;50.046;8.238;2022-07-15T15:17:42;26.22;31.27
66213;SHT31;53015;50.046;8.238;2022-07-15T15:20:09;26.33;31.75
66213;SHT31;53015;50.046;8.238;2022-07-15T15:22:35;26.66;31.62
66213;SHT31;53015;50.046;8.238;2022-07-15T15:25:01;27.31;30.38
66213;SHT31;53015;50.046;8.238;2022-07-15T15:27:27;27.35;29.70
66213;SHT31;53015;50.046;8.238;2022-07-15T15:29:52;28.00;29.28
66213;SHT31;53015;50.046;8.238;2022-07-15T15:32:18;28.58;28.15
66213;SHT31;53015;50.046;8.238;2022-07-15T15:34:44;28.48;28.72
66213;SHT31;53015;50.046;8.238;2022-07-15T15:37:10;29.17;27.83
66213;SHT31;53015;50.046;8.238;2022-07-15T15:39:37;29.61;27.26
66213;SHT31;53015;50.046;8.238;2022-07-15T15:42:04;29.06;27.06
66213;SHT31;53015;50.046;8.238;2022-07-15T15:44:29;29.85;26.92
66213;SHT31;53015;50.046;8.238;2022-07-15T15:46:55;29.70;27.04
66213;SHT31;53015;50.046;8.238;2022-07-15T15:49:21;29.69;26.59
66213;SHT31;53015;50.046;8.238;2022-07-15T15:51:46;29.68;26.77
66213;SHT31;53015;50.046;8.238;2022-07-15T15:54:12;30.06;25.73
66213;SHT31;53015;50.046;8.238;2022-07-15T15:56:37;30.07;25.93
66213;SHT31;53015;50.046;8.238;2022-07-15T15:59:04;29.65;26.65
66213;SHT31;53015;50.046;8.238;2022-07-15T16:01:31;30.54;25.25